Current | Forecast
Updated: 6:48 AM JST on February 19, 2018
Observed at Ominato AB, Japan
Temperature 23°F
Humidity 86%
Dew Point 19°F
Wind North at 0 mph
Pressure 30.06 in (Rising)
Conditions Light Snow Showers
Visibility 3.1 miles
UV 0 out of 16
Clouds (FEW) : 1000 ft
Mostly Cloudy (BKN) : 2000 ft
Mostly Cloudy (BKN) : 3000 ft
Yesterday's Maximum 27°F
Yesterday's Minimum 25°F approx.
Yesterday's Heating Degree Days 39 approx.
Sunrise6:24 AM JST
Sunset5:12 PM JST
Moon Rise8:12 AM JST
Moon Set8:32 PM JST
Moon PhaseMoon Phase
Waxing Crescent
Raw METARSPECI RJSO 182148Z 00000KT 5000 -SHSN FEW010 BKN020 BKN030 M05/M07 Q1018 RMK 2ST010 5CU020 7CU030 A3009


Monday
. High: 69° F.
Tuesday
. High: 71° F.
Wednesday
. High: 68° F.
Thursday
. High: 68° F.
Friday
. High: 60° F.
Saturday
. High: 60° F.
Sunday
. High: 59° F.
Monday
. High: 62° F.

Units: English | Metric

Find the Weather for any City, State or Zipcode, or Country:

U.S. State List | Severe Weather | Tropical Storms | Ski Conditions
United States | Canada | Central America | South America | Asia | Europe | Australia | Africa | Islands

Weather Underground

© Copyright 2018
The Weather Company, LLC